Gatesville, North Carolina
Current Conditions -  °F | °C
As of 5:15 PM on Monday 20 Oct 2014 (Local Time) from KFKN Reporting Station
Clear Clear  
Wind Chill: 66°   Ceiling: Unl
Heat Index: 66°   Visibility: 10mi
Dew Point: 46°   Wind: 5mph
Humidity: 49%   Direction: 200°SSW
Pressure: 29.99"   Gusts: NA
Location:  36.4°N, 76.75°W
Report Text: KFKN 202115Z AUTO 20004KT 10SM CLR 19/08 A2999 RMK AO1
Loading
Personal Weather Stations






























Interactive Weather Map
Tropical Storm Tracking
New forecast layout! Learn more

10-Day Weather Forecast

Advertisements
Track Severe Weather on mobile